Last 24 Hours

Pinyon

10 Minute Data | America/Los_Angeles
as of 10/14/19 11:09 AM PDT
Date & Time Temp (°F) Dew Pt (°F) RH (%) Wind Spd (mph) Wind Dir (°) Wind Gust (mph) Wind Gst Dir (°) Daily Max Temp (°F) Daily Min Temp (°F)
10/14/19 - 1100 62.5 26.3 25 5.4 NE | 40 11.2 NNE | 28 63.5 54.2
10/14/19 - 1050 62.4 26.2 25 5.9 NNE | 27 10.7 NNE | 27 63.5 54.2
10/14/19 - 1040 62.6 25.7 24 5.4 NE | 46 10.1 NE | 44 63.5 54.2
10/14/19 - 1030 61.9 25.3 25 6.0 NNE | 24 10.1 NE | 47 62.8 54.2
10/14/19 - 1020 62.0 24.2 23 6.0 NE | 38 10.3 NNE | 31 62.8 54.2
10/14/19 - 1010 62.2 23.4 22 5.2 NNE | 30 10.5 NNE | 24 62.8 54.2
10/14/19 - 1000 62.0 23.4 23 4.6 NE | 50 9.2 NE | 42 62.8 54.2
10/14/19 - 0950 62.1 23.3 22 4.3 ENE | 73 8.8 NE | 53 62.8 54.2
10/14/19 - 0940 62.2 22.0 21 3.1 NE | 42 6.6 ENE | 65 62.8 54.2
10/14/19 - 0930 61.8 19.2 19 1.3 SSW | 193 3.3 WSW | 251 62.4 54.2
10/14/19 - 0920 60.8 17.0 18 2.0 WSW | 252 3.5 SW | 229 61.2 54.2
10/14/19 - 0910 60.0 15.4 17 2.7 SW | 216 4.8 SW | 222 60.6 54.2
10/14/19 - 0900 59.3 16.9 19 3.7 SW | 229 5.7 SW | 216 59.8 54.2
10/14/19 - 0850 58.4 18.6 21 3.6 WSW | 244 5.7 WSW | 240 59.1 54.2
10/14/19 - 0840 57.9 17.4 20 4.0 WSW | 245 5.7 SW | 226 58.5 54.2
10/14/19 - 0830 57.4 15.2 19 3.1 SW | 234 5.7 WSW | 244 58.5 54.2
10/14/19 - 0820 56.5 12.7 17 2.2 WSW | 247 3.7 WSW | 237 58.5 54.2
10/14/19 - 0810 56.2 11.4 17 3.6 SW | 236 5.0 SW | 236 58.5 54.2
10/14/19 - 0800 55.2 9.7 16 3.2 WSW | 251 5.0 SW | 234 58.5 54.2
10/14/19 - 0750 54.8 8.8 16 2.3 W | 264 3.1 W | 269 58.5 54.2
10/14/19 - 0740 55.8 12.0 17 3.6 WSW | 237 4.6 SW | 229 58.5 54.2
10/14/19 - 0730 56.6 12.8 17 3.2 SW | 219 5.3 SW | 214 58.5 54.2
10/14/19 - 0720 56.5 11.6 17 2.0 SSW | 208 3.3 SW | 216 58.5 54.2
10/14/19 - 0710 56.3 7.5 14 4.0 SW | 227 5.5 SW | 223 58.5 54.2
10/14/19 - 0700 56.5 7.7 14 4.6 WSW | 246 6.1 W | 262 58.5 54.2
10/14/19 - 0650 56.9 23.2 27 1.9 S | 187 3.3 S | 178 58.5 54.2
10/14/19 - 0640 55.8 16.6 22 2.5 SSW | 199 5.0 SW | 236 58.5 54.2
10/14/19 - 0630 54.7 9.5 16 2.6 WSW | 238 4.4 SW | 222 58.5 54.2
10/14/19 - 0620 55.4 9.6 16 3.0 W | 274 5.5 W | 273 58.5 54.5
10/14/19 - 0610 57.6 6.0 12 2.9 WNW | 300 4.8 WNW | 294 58.5 54.5
10/14/19 - 0600 58.1 14.7 18 2.8 W | 261 5.7 WNW | 282 58.5 54.5
10/14/19 - 0550 57.8 22.4 25 3.6 SW | 230 4.6 SW | 223 58.5 54.5
10/14/19 - 0540 57.4 17.3 21 4.0 SW | 232 4.6 SW | 224 58.5 54.5
10/14/19 - 0530 58.1 12.8 16 3.0 W | 263 4.4 W | 261 58.5 54.5
10/14/19 - 0520 57.7 19.6 23 2.7 W | 273 3.7 W | 273 58.5 54.5
10/14/19 - 0510 57.2 16.6 20 3.6 W | 267 5.7 W | 275 58.1 54.5
10/14/19 - 0500 57.2 15.6 19 4.0 WNW | 285 5.9 WNW | 294 58.1 54.5
10/14/19 - 0450 57.1 11.8 16 4.2 WNW | 294 5.3 WNW | 294 58.1 54.5
10/14/19 - 0440 57.4 9.8 15 5.0 WNW | 302 7.0 NW | 305 58.1 54.5
10/14/19 - 0430 57.7 11.2 16 4.6 WNW | 303 5.9 NW | 308 58.1 54.5
10/14/19 - 0420 57.4 19.3 23 5.0 WNW | 293 6.8 WNW | 294 57.8 54.5
10/14/19 - 0410 57.2 24.7 28 3.5 W | 269 5.3 W | 280 57.8 54.5
10/14/19 - 0400 57.1 21.6 25 5.0 W | 272 6.6 W | 266 57.8 54.5
10/14/19 - 0350 57.3 20.6 24 3.8 W | 275 6.6 W | 280 57.8 54.5
10/14/19 - 0340 57.4 22.1 25 1.3 WSW | 242 2.2 W | 260 57.8 54.5
10/14/19 - 0330 57.4 22.1 25 1.6 W | 265 3.3 WNW | 290 57.7 54.5
10/14/19 - 0320 56.7 22.0 26 4.8 WNW | 295 7.5 WNW | 297 57.2 54.5
10/14/19 - 0310 56.2 21.8 26 5.7 WNW | 291 6.6 WNW | 292 56.8 54.5
10/14/19 - 0300 56.2 22.4 27 5.4 WNW | 288 7.0 WNW | 289 56.8 54.5
10/14/19 - 0250 55.4 24.3 30 7.0 WNW | 292 8.6 WNW | 294 56.8 54.5
10/14/19 - 0240 56.3 27.0 32 6.3 WNW | 295 7.7 WNW | 294 56.8 54.5
10/14/19 - 0230 55.6 28.5 35 5.1 W | 276 7.2 WNW | 286 56.5 54.5
10/14/19 - 0220 55.4 28.0 35 6.0 WNW | 283 8.1 WNW | 287 56.5 54.5
10/14/19 - 0210 56.1 28.3 34 6.1 WNW | 294 8.1 WNW | 289 56.5 54.5
10/14/19 - 0200 55.8 29.0 36 6.6 WNW | 294 8.1 WNW | 294 56.4 54.5
10/14/19 - 0150 55.1 31.1 40 5.9 WNW | 291 7.2 WNW | 295 55.8 54.5
10/14/19 - 0140 54.8 32.4 42 5.5 WNW | 289 6.8 WNW | 292 55.8 54.5
10/14/19 - 0130 54.8 32.5 43 7.3 WNW | 294 9.2 WNW | 300 55.8 54.5
10/14/19 - 0120 55.2 33.1 43 6.4 WNW | 294 8.8 WNW | 292 55.8 54.5
10/14/19 - 0110 54.8 33.4 44 6.4 WNW | 294 9.4 WNW | 293 55.3 54.6
10/14/19 - 0100 55.2 33.9 44 6.9 WNW | 293 10.3 WNW | 292 68.2 54.7
10/14/19 - 0050 55.4 35.1 46 7.3 WNW | 296 12.3 WNW | 283 68.2 55.0
10/14/19 - 0040 55.3 35.7 48 8.4 WNW | 289 11.6 W | 276 68.2 55.1
10/14/19 - 0030 55.6 36.2 48 8.0 WNW | 292 10.7 W | 280 68.2 55.3
10/14/19 - 0020 56.2 37.0 48 8.7 WNW | 283 13.2 W | 281 68.2 55.5
10/14/19 - 0010 56.5 37.4 49 8.5 WNW | 286 13.6 WNW | 284 68.2 55.5
10/14/19 - 0000 56.5 37.7 49 7.2 WNW | 294 9.9 WNW | 294 68.2 55.5
10/13/19 - 2350 56.5 37.9 50 5.7 WNW | 287 9.2 W | 277 68.2 55.5
10/13/19 - 2340 56.5 37.8 49 6.0 W | 266 10.3 W | 264 68.2 55.5
10/13/19 - 2330 56.5 37.1 48 7.3 WSW | 258 10.3 W | 267 68.2 55.5
10/13/19 - 2320 56.7 36.1 46 7.8 WSW | 257 10.7 WSW | 244 68.2 55.5
10/13/19 - 2310 56.9 34.4 42 7.8 WSW | 256 10.1 W | 261 68.2 55.5
10/13/19 - 2300 56.3 32.1 40 7.2 W | 261 9.9 SW | 234 68.2 55.5
10/13/19 - 2250 55.9 29.8 37 6.4 W | 262 10.1 W | 262 68.2 55.5
10/13/19 - 2240 55.9 27.7 34 6.7 WSW | 250 9.9 WSW | 252 68.2 55.8
10/13/19 - 2230 56.5 25.0 29 8.9 WSW | 245 14.0 WSW | 243 68.2 56.1
10/13/19 - 2220 57.5 20.5 23 7.1 W | 273 12.5 WSW | 241 68.2 56.1
10/13/19 - 2210 57.7 20.1 23 5.5 W | 278 8.1 W | 272 68.2 57.1
10/13/19 - 2200 59.0 19.3 21 5.8 W | 263 7.0 W | 265 68.2 58.4
10/13/19 - 2150 59.5 19.0 21 5.5 W | 268 7.0 W | 260 68.2 58.8
10/13/19 - 2140 60.3 18.9 20 3.1 WSW | 254 5.0 W | 277 68.2 58.8
10/13/19 - 2130 60.0 19.3 20 1.1 SW | 227 2.4 WSW | 244 68.2 58.8
10/13/19 - 2120 60.4 19.0 20 1.7 SW | 221 2.8 SW | 216 68.2 58.8
10/13/19 - 2110 61.1 19.4 20 2.3 SSW | 202 4.6 WSW | 242 68.2 58.8
10/13/19 - 2100 61.4 19.8 20 1.4 SSW | 197 2.4 SSW | 192 68.2 58.8
10/13/19 - 2050 61.4 20.2 20 1.5 SW | 217 2.0 SW | 218 68.2 58.8
10/13/19 - 2040 61.6 19.7 20 0.9 SW | 232 2.4 SW | 224 68.2 58.8
10/13/19 - 2030 61.8 20.0 20 0.6 SSW | 204 2.2 SSW | 209 68.2 58.8
10/13/19 - 2020 61.9 19.3 19 1.4 SW | 228 2.8 SW | 216 68.2 58.8
10/13/19 - 2010 62.1 19.5 19 1.1 SSW | 201 2.0 SSW | 192 68.2 58.8
10/13/19 - 2000 62.1 19.5 19 3.0 S | 184 4.2 S | 171 68.2 58.8
10/13/19 - 1950 62.1 19.1 19 2.6 SSW | 197 4.2 SSE | 168 68.2 58.8
10/13/19 - 1940 62.1 19.1 19 2.4 SW | 224 3.7 SW | 223 68.2 58.8
10/13/19 - 1930 62.0 19.1 19 2.8 SW | 215 4.2 SW | 225 68.2 58.8
10/13/19 - 1920 62.1 19.1 19 3.3 SSW | 213 4.4 SW | 218 68.2 58.8
10/13/19 - 1910 62.1 19.5 19 3.2 SSW | 200 4.6 SSW | 212 68.2 58.8
10/13/19 - 1900 62.6 19.5 19 3.6 SW | 215 4.6 SSW | 213 68.2 58.8
10/13/19 - 1850 63.2 19.9 19 2.8 SSW | 200 4.2 S | 186 68.2 58.8
10/13/19 - 1840 62.7 20.0 19 2.6 SSW | 196 4.2 S | 185 68.2 58.8
10/13/19 - 1830 63.3 20.4 19 3.3 S | 177 4.4 S | 174 68.2 58.8
10/13/19 - 1820 63.4 20.1 19 2.9 S | 190 4.6 S | 174 68.2 58.8
10/13/19 - 1810 63.4 20.1 19 0.3 NE | 55 1.8 NE | 55 68.2 58.8
10/13/19 - 1800 63.7 20.3 19 1.9 ENE | 62 2.6 ENE | 72 68.2 58.8
10/13/19 - 1750 64.0 20.2 18 2.6 NE | 36 3.3 NNE | 20 68.2 58.8
10/13/19 - 1740 64.3 20.2 18 2.9 NNE | 24 5.0 NNE | 20 68.2 58.8
10/13/19 - 1730 64.8 20.2 18 3.5 NNE | 23 5.5 NE | 41 68.2 58.8
10/13/19 - 1720 65.0 20.2 18 3.4 NNE | 33 5.5 NE | 38 68.2 58.8
10/13/19 - 1710 65.3 20.2 18 3.9 NNE | 32 6.4 NE | 35 68.2 58.8
10/13/19 - 1700 65.4 20.2 18 4.6 NNE | 32 7.9 NNE | 19 68.2 58.8
10/13/19 - 1650 65.7 20.2 17 5.2 NNE | 26 8.3 NE | 39 68.2 58.8
10/13/19 - 1640 65.8 20.3 17 5.4 NNE | 33 9.4 NNE | 33 68.2 58.8
10/13/19 - 1630 65.8 20.3 17 6.8 NNE | 28 10.3 NNE | 14 68.2 58.8
10/13/19 - 1620 65.8 20.5 18 6.4 NNE | 21 11.2 NE | 43 68.2 58.8
10/13/19 - 1610 65.8 20.9 18 7.8 NNE | 14 12.9 NE | 40 68.2 58.8
10/13/19 - 1600 66.1 21.0 18 8.0 NNE | 27 12.5 NNE | 22 68.2 58.8
10/13/19 - 1550 66.5 21.4 18 7.0 NE | 34 11.0 N | 6 68.2 58.8
10/13/19 - 1540 66.4 20.7 17 6.6 NNE | 23 12.1 NE | 50 68.2 58.8
10/13/19 - 1530 66.3 20.2 17 6.0 NE | 35 10.3 NNE | 26 68.2 58.8
10/13/19 - 1520 66.9 20.5 17 7.4 NNE | 32 11.2 NNE | 20 68.2 58.8
10/13/19 - 1510 66.8 19.9 17 5.9 NE | 43 12.3 NE | 47 68.2 58.8
10/13/19 - 1500 66.5 19.9 17 6.8 ENE | 62 12.3 NE | 55 67.4 58.8
10/13/19 - 1450 66.2 19.5 17 6.9 NE | 43 12.7 NE | 51 67.4 58.8
10/13/19 - 1440 66.2 19.4 16 7.0 NE | 41 11.4 NE | 40 67.4 58.8
10/13/19 - 1430 66.1 19.3 16 7.9 NE | 37 13.4 ENE | 66 67.4 58.8
10/13/19 - 1420 66.5 19.9 17 7.9 NE | 43 12.7 NE | 49 67.4 58.8
10/13/19 - 1410 65.8 18.9 16 7.4 NNE | 30 12.7 NE | 43 67.1 58.8
10/13/19 - 1400 66.0 18.7 16 7.6 NE | 34 12.9 NE | 36 67.1 58.8
10/13/19 - 1350 66.1 18.6 16 8.0 NNE | 29 12.5 NNE | 18 67.1 58.8
10/13/19 - 1340 65.9 18.3 16 8.2 NNE | 30 12.9 NE | 38 66.8 58.8
10/13/19 - 1330 66.0 17.5 15 7.2 NNE | 30 12.3 NE | 41 66.8 58.8
10/13/19 - 1320 66.1 17.3 15 7.5 NE | 37 12.3 NE | 49 66.7 58.8
10/13/19 - 1310 65.7 16.7 15 7.8 NNE | 31 15.3 NE | 42 66.5 58.8
10/13/19 - 1300 65.9 16.7 15 7.9 NNE | 31 12.9 NNE | 24 66.5 58.8
10/13/19 - 1250 65.6 16.7 15 7.8 NNE | 24 12.9 NNE | 28 66.2 58.8
10/13/19 - 1240 65.5 16.2 15 8.0 NNE | 32 12.3 NE | 48 66.0 58.8
10/13/19 - 1230 65.0 16.2 15 7.7 NE | 36 12.7 NNE | 24 66.0 58.8
10/13/19 - 1220 65.2 16.5 15 8.3 NE | 42 14.0 NE | 34 66.0 58.8
10/13/19 - 1210 65.0 16.2 15 8.2 NNE | 31 12.7 NNE | 31 66.0 58.8
10/13/19 - 1200 64.8 16.2 15 7.0 NE | 37 11.4 NE | 42 66.0 58.8
10/13/19 - 1150 65.0 16.2 15 7.0 NNE | 32 11.2 N | 8 66.0 58.8
10/13/19 - 1140 64.8 15.8 15 7.4 NE | 35 11.4 NNE | 33 66.0 58.8
10/13/19 - 1130 64.6 15.4 15 5.3 NNE | 32 9.6 NE | 42 65.5 58.8
10/13/19 - 1120 64.2 15.2 15 5.4 NNE | 33 10.1 ENE | 61 65.2 58.8
10/13/19 - 1110 64.3 15.0 15 5.6 NNE | 28 9.4 NE | 53 65.2 58.8
10/13/19 - 1100 64.4 15.1 15 6.1 NE | 41 11.4 NE | 53 65.2 58.8
Max 66.9 37.9 50 8.9 - 15.3 - 68.2 58.8
Avg 60.5 20.9 23 5.0 - 7.8 - - -
Min 54.7 6.0 12 0.3 - 1.8 - 55.3 54.2